Tiempo atmosférico en la estación meteorológica de Benavente, Zamora (715 m.)

Fecha
DESCASC
Temp. máxima en grados centígrados (hora)
DESCASC
Temp. mínima en grados centígrados (hora)
DESCASC
Temp. media en grados centígrados
DESCASC
Racha de viento máxima en m/sg (hora)
DESCASC
Velocidad máxima media en intervalos de 10 minutos(hora)
DESCASC
Precipitaciones diarias en mm
DESCASC
Precipitaciones de 00:00 a 06:00 en mm
DESCASC
Precipitaciones de 06:00 a 12:00 en mm
DESCASC
Precipitaciones de 12:00 a 18:00 en mm
DESCASC
Precipitaciones de 18:00 a 24:00 en mm
DESCASC
10-12-2017 12.1 (15:40) 8.8 (03:00) 10.5 24.72 (23:50) 10.83 (23:50) 7 0 0 0.2 6.8
09-12-2017 11.9 (16:50) 5.2 (06:00) 8.5 8.61 (20:20) 3.89 (19:10) 0 0 0 0 0
08-12-2017 11.8 (16:20) 0.9 (04:20) 6.4 5 (13:20) 2.5 (13:20) 0 0 0 0 0
07-12-2017 3.7 (20:10) -2 (-00:0) 0.9 4.17 (11:00) 1.67 (11:00) 3 0 0 0 3
06-12-2017 -1.7 (17:20) -4.7 (-00:0) -3.2 4.17 (12:10) 1.39 (06:40) 0 0 0 0 0
05-12-2017 8.3 (16:10) -4 (-00:0) 2.2 5.28 (10:40) 2.78 (11:00) 0 0 0 0 0
04-12-2017 8.5 (16:00) -5.2 (-00:0) 1.7 5.83 (15:50) 2.78 (15:30) 0 0 0 0 0
03-12-2017 7.9 (15:20) -5.2 (-00:0) 1.4 4.72 (13:10) 2.22 (11:20) 0 0 0 0 0
02-12-2017 8.2 (14:20) -3.8 (-00:0) 2.2 15.28 (14:40) 7.5 (14:30) 0 0 0 0 0
01-12-2017 8.5 (11:40) -1 (-00:0) 3.8 14.72 (13:10) 7.5 (13:40) 0 0 0 0 0
30-11-2017 9.4 (15:50) -4.3 (-00:0) 2.5 7.5 (15:00) 3.89 (23:30) 0 0 0 0 0
29-11-2017 9.4 (14:50) -4.2 (-00:0) 2.6 9.44 (14:40) 5.56 (15:10) 0 0 0 0 0
28-11-2017 2.1 (16:40) -4.2 (-00:0) -1 5 (15:40) 2.22 (15:20) 0 0 0 0 0
27-11-2017 9.2 (15:40) -3.3 (-00:0) 2.9 4.17 (18:30) 2.22 (17:00) 0 0 0 0 0
26-11-2017 8.9 (15:50) -1.9 (-00:0) 3.5 5.83 (14:10) 2.78 (10:20) 0 0 0 0 0
25-11-2017 12.3 (14:10) 2.6 (00:00) 7.5 10 (19:10) 5.28 (19:10) 3.2 3.2 0 0 0
24-11-2017 15 (17:10) 9.4 (00:00) 12.2 10 (13:50) 5 (13:50) 5.6 1.4 0 0 4.2
23-11-2017 16.1 (16:50) 8.3 (00:00) 12.2 11.39 (16:50) 5.83 (17:00) 0 0 0 0 0
22-11-2017 15.1 (15:30) -2.9 (-00:0) 6.1 9.17 (19:10) 4.44 (19:10) 0 0 0 0 0
21-11-2017 15.4 (16:20) -3 (-00:0) 6.2 3.61 (16:40) 1.94 (16:40) 0 0 0 0 0
20-11-2017 15.7 (15:00) -1.7 (-00:0) 7 4.17 (15:00) 2.22 (16:50) 0 0 0 0 0
19-11-2017 16.8 (15:40) -2.1 (-00:0) 7.3 3.89 (10:20) 2.22 (00:50) 0 0 0 0 0
18-11-2017 16.9 (16:00) 0.5 (00:00) 8.7 6.11 (14:20) 2.78 (14:00) 0 0 0 0 0
17-11-2017 17.8 (15:40) 2.3 (00:00) 10 5 (21:00) 2.22 (12:10) 0 0 0 0 0
16-11-2017 17.9 (16:40) -1.1 (-00:0) 8.4 3.61 (05:50) 1.67 (22:30) 0 0 0 0 0
15-11-2017 15.8 (16:10) 0 (00:00) 7.9 4.72 (08:00) 2.5 (01:20) 0 0 0 0 0

Gráficas

Temp. máximas Temp. mínimas Temp. medias Precipitaciones Rachas de viento máximas Velocidades máximas media en intervalos de 10 minutos

Datos horarios

Fecha y hora oficial Temperatura (ºC) Velocidad del viento (km/h) Dirección del viento Racha (km/h) Dirección de racha Precipitación (mm) Presión (hPa) Tendencia (hPa) Humedad (%)
2017-12-14 23:00:00 8.4 7 Oeste 23 Oeste 0 931.8 0.7 81
2017-12-14 22:00:00 9.7 9 Oeste 22 Oeste 0 931.4 0.1 78
2017-12-14 21:00:00 10.8 8 Oeste 23 Sudoeste 0 931.1 -1 81
2017-12-14 20:00:00 11.2 8 Sudoeste 22 Sudoeste 0 931.1 -0.8 82
2017-12-14 19:00:00 11.6 12 Sudoeste 21 Sudoeste 1 931.3 -1 84
2017-12-14 18:00:00 12 12 Oeste 39 Oeste 0.2 932.1 -0.8 83
2017-12-14 17:00:00 12.6 13 Sudoeste 43 Oeste 0 931.9 -1.9 77
2017-12-14 16:00:00 13.1 19 Sudoeste 44 Sudoeste 0 932.3 -2.2 75
2017-12-14 15:00:00 13.7 15 Sudoeste 40 Oeste 0 932.9 -2.4 73
2017-12-14 14:00:00 13.5 17 Sudoeste 44 Oeste 0 933.8 -1.6 73
2017-12-14 13:00:00 14.1 18 Oeste 39 Sudoeste 0 934.5 -0.9 72
2017-12-14 12:00:00 13.2 15 Oeste 41 Sudoeste 0 935.3 0.1 75
2017-12-14 11:00:00 12.6 14 Sudoeste 35 Oeste 0 935.4 -0.2 80
2017-12-14 10:00:00 11.6 17 Sudoeste 38 Sudoeste 0 935.4 0.4 83
2017-12-14 09:00:00 11.4 17 Sudoeste 35 Oeste 0 935.2 -0.1 83
2017-12-14 08:00:00 11.3 13 Sudoeste 39 Sudoeste 0 935.6 -0.4 83
2017-12-14 07:00:00 11 18 Sudoeste 41 Sudoeste 0 935 -1.9 85
2017-12-14 06:00:00 10.8 16 Sudoeste 42 Oeste 0 935.3 -1.8 85
2017-12-14 05:00:00 10.9 15 Sudoeste 41 Oeste 0 936 -1.8 84
2017-12-14 04:00:00 10.7 15 Oeste 36 Oeste 0 936.9 -1.7 85
2017-12-14 03:00:00 10.3 14 Oeste 38 Oeste 0 937.1 -1.8 85
2017-12-14 02:00:00 9.9 8 Sudoeste 25 Sudoeste 0 937.8 -1.4 86
2017-12-14 01:00:00 8.8 8 Sur 27 Sudoeste 0 938.6 -0.9 89
2017-12-14 00:00:00 8.3 16 Sudoeste 30 Sudoeste 0 938.9 -0.4 88
2017-12-13 23:00:00 8.4 14 Sudoeste 28 Sudoeste 0 939.2 -0.4 87
2017-12-13 22:00:00 8.7 16 Sudoeste 33 Sudoeste 0 939.5 0.1 85
2017-12-13 21:00:00 7.9 16 Sudoeste 32 Sudoeste 0 939.3 0.4 86
2017-12-13 20:00:00 7.6 12 Sudoeste 31 Sudoeste 0 939.6 0.5 85
2017-12-13 19:00:00 7.9 18 Sudoeste 34 Sudoeste 0 939.4 0.4 83
2017-12-13 18:00:00 8.2 18 Sudoeste 39 Sudoeste 0 938.9 -0.4 80
2017-12-13 17:00:00 9.3 15 Sudoeste 38 Oeste 0 939.1 -0.7 75
2017-12-13 16:00:00 10 19 Sudoeste 39 Sudoeste 0 939 -1.5 71
2017-12-13 15:00:00 10.5 16 Sudoeste 33 Sudoeste 0 939.3 -1.5 69
2017-12-13 14:00:00 8.9 13 Sudoeste 31 Sudoeste 0 939.8 -1.3 76
2017-12-13 13:00:00 8.1 15 Sudoeste 31 Sudoeste 0 940.5 -0.4 79
2017-12-13 12:00:00 8.2 14 Sudoeste 27 Sur 0 940.8 -0.1 78
2017-12-13 11:00:00 5.8 13 Sudoeste 24 Sudoeste 0 941.1 0.6 83
2017-12-13 10:00:00 3.7 6 Sudoeste 15 Sur 0 940.9 1.3 90
2017-12-13 09:00:00 2.7 0 Calma 8 Sudoeste 0 940.9 1.7 89
2017-12-13 08:00:00 3.1 3 Sudoeste 17 Sudoeste 0 940.5 0.4 89
2017-12-13 07:00:00 2.7 9 Sudoeste 21 Sudoeste 0 939.6 -0.7 89
2017-12-13 06:00:00 1.8 9 Sudoeste 18 Sudoeste 0 939.2 -0.6 91
2017-12-13 05:00:00 1.3 7 Sur 13 Sur 0 940.1 0.5 90
2017-12-13 04:00:00 1.7 5 Sur 8 Sur 0 940.3 0.8 89
2017-12-13 03:00:00 1.6 3 Sudoeste 9 Sur 0 939.8 0.4 88
2017-12-13 02:00:00 1.8 4 Sudoeste 7 Sur 0 939.6 0.5 85
2017-12-13 01:00:00 3.3 4 Sur 16 Oeste 0 939.5 0.8 80
2017-12-13 00:00:00 3.7 8 Oeste 17 Oeste 0 939.4 0.9 79
2017-12-12 23:00:00 3.4 8 Oeste 18 Oeste 0 939.1 1.3 78
2017-12-12 22:00:00 3.9 9 Oeste 19 Noroeste 0 938.7 1.4 75
2017-12-12 21:00:00 4 5 Oeste 13 Sudoeste 0 938.5 1.8 70
2017-12-12 20:00:00 4 2 Este 8 Oeste 0 937.8 1.8 71
2017-12-12 19:00:00 5.7 6 Noroeste 13 Noroeste 0 937.3 2 63
2017-12-12 18:00:00 6.7 6 Noroeste 15 Noroeste 0 936.7 1.5 59
2017-12-12 17:00:00 7.6 7 Noroeste 16 Noroeste 0 936 1 54
2017-12-12 16:00:00 9.4 8 Norte 20 Norte 0 935.3 0.4 46
2017-12-12 15:00:00 9.4 5 Noroeste 13 Norte 0 935.2 0.6 48
2017-12-12 14:00:00 8.3 5 Oeste 15 Sudoeste 0 935 0.5 53
2017-12-12 13:00:00 7.3 6 Sudoeste 13 Oeste 0 934.9 1.8 56
2017-12-12 12:00:00 5.3 5 Sur 10 Sur 0 934.6 2.3 63
2017-12-12 11:00:00 3.5 2 Este 17 Sur 0 934.5 2.6 69
2017-12-12 10:00:00 0.8 7 Sur 14 Oeste 0 933.1 2.2 80
2017-12-12 09:00:00 0.4 8 Oeste 17 Noroeste 0 932.3 2.2 80
2017-12-12 08:00:00 0.8 12 Noroeste 18 Noroeste 0 931.9 2.6 79
2017-12-12 07:00:00 0.7 10 Noroeste 21 Noroeste 0 930.9 2.2 80
2017-12-12 06:00:00 0.6 10 Oeste 19 Noroeste 0 930.1 2 81
2017-12-12 05:00:00 0.8 8 Oeste 14 Noroeste 0 929.3 1.9 79
2017-12-12 04:00:00 1 9 Noroeste 21 Noroeste 0 928.7 1.6 79
2017-12-12 03:00:00 0.7 11 Noroeste 21 Noroeste 0 928.1 1.4 80
2017-12-12 02:00:00 0.6 9 Oeste 17 Noroeste 0 927.4 1.9 80
2017-12-12 01:00:00 1.3 7 Oeste 13 Oeste 0 927.1 2.6 76
2017-12-12 00:00:00 1.3 6 Oeste 26 Noroeste 0 926.7 3.7 74
2017-12-11 23:00:00 1.4 13 Noroeste 27 Noroeste 0 925.5 3.8 74
2017-12-11 22:00:00 1.7 14 Noroeste 29 Noroeste 0 924.5 4.3 71
2017-12-11 21:00:00 2.2 17 Noroeste 30 Noroeste 0 923 4.7 68
2017-12-11 20:00:00 2.5 15 Noroeste 33 Noroeste 0 921.7 5 69
2017-12-11 19:00:00 3.4 22 Noroeste 44 Noroeste 0 920.2 5.2 65
2017-12-11 18:00:00 4.6 21 Noroeste 43 Noroeste 0 918.3 4.2 61
2017-12-11 17:00:00 7.1 21 Noroeste 45 Noroeste 0 916.7 3.2 56
2017-12-11 16:00:00 8.3 16 Noroeste 41 Noroeste 0 915 1.6 58
2017-12-11 15:00:00 7.5 14 Oeste 30 Sudoeste 0 914.1 0.8 65
2017-12-11 14:00:00 6.8 16 Oeste 37 Sudoeste 0 913.5 0.7 66
2017-12-11 13:00:00 6.4 12 Sudoeste 31 Sudoeste 0 913.4 1.7 70
2017-12-11 12:00:00 5.6 15 Sudoeste 42 Sudoeste 0 913.3 2.5 74
2017-12-11 11:00:00 4.7 11 Sudoeste 28 Oeste 0 912.8 3.1 76
2017-12-11 10:00:00 3.8 10 Sudoeste 21 Oeste 0 911.7 2.7 78
2017-12-11 09:00:00 3.7 9 Oeste 21 Oeste 0 910.8 3 78
2017-12-11 08:00:00 3.6 4 Oeste 20 Sudoeste 0 909.7 2.8 85
2017-12-11 07:00:00 4.1 8 Oeste 23 Oeste 0 909 2.6 84
2017-12-11 06:00:00 4.4 13 Oeste 41 Noroeste 0 907.8 1.2 82
2017-12-11 05:00:00 5.3 11 Oeste 39 Sudoeste 0 906.9 -0.7 80
2017-12-11 04:00:00 5.6 17 Sudoeste 40 Sudoeste 0 906.4 0 84
2017-12-11 03:00:00 5.3 16 Sudoeste 35 Sudoeste 0.4 906.6 0.4 85
2017-12-11 02:00:00 5.7 13 Sudoeste 41 Oeste 1.6 907.6 2.6 86
2017-12-11 01:00:00 6.5 17 Sudoeste 47 Oeste 4.2 906.4 -1.4 83
2017-12-11 00:00:00 8.8 27 Oeste 89 Sudoeste 2.2 906.2 -4.8 83
2017-12-10 23:00:00 10.5 29 Sudoeste 73 Sudoeste 1.8 905 -8 86
2017-12-10 22:00:00 10.4 34 Sudoeste 72 Sur 1.4 907.8 -6.9 87
2017-12-10 21:00:00 10.1 29 Sudoeste 74 Sudoeste 0.8 911 -6 87
2017-12-10 20:00:00 10.1 26 Sudoeste 70 Sudoeste 0.6 913 -6.1 87
2017-12-10 19:00:00 10.6 26 Sudoeste 61 Sudoeste 0 914.7 -5.4 85
2017-12-10 18:00:00 10.8 23 Sudoeste 58 Sudoeste 0 917 -4.7 84
2017-12-10 17:00:00 11.3 27 Sudoeste 67 Sudoeste 0 919.1 -4.7 82
2017-12-10 16:00:00 11.9 30 Sudoeste 72 Sudoeste 0 920.1 -5.7 78
2017-12-10 15:00:00 11.5 26 Sudoeste 57 Sudoeste 0 921.7 -6.3 83
2017-12-10 14:00:00 11.2 23 Sudoeste 50 Sudoeste 0 923.8 -5.2 86
2017-12-10 13:00:00 10.6 21 Sudoeste 48 Sudoeste 0.2 925.8 -3.9 89
2017-12-10 12:00:00 10.4 21 Sudoeste 47 Sudoeste 0 928 -3 88
2017-12-10 11:00:00 10 19 Sudoeste 46 Sudoeste 0 929 -2.5 89
2017-12-10 10:00:00 9.8 19 Sudoeste 41 Sudoeste 0 929.7 -3.1 88
2017-12-10 09:00:00 9.6 19 Sudoeste 42 Sudoeste 0 931 -2.2 86
2017-12-10 08:00:00 9.7 12 Sudoeste 35 Sur 0 931.5 -2.4 84
2017-12-10 07:00:00 9.9 15 Sudoeste 39 Sudoeste 0 932.8 -2.6 81
2017-12-10 06:00:00 9.6 9 Sudoeste 35 Oeste 0 933.2 -2.4 84
2017-12-10 05:00:00 9.5 15 Sudoeste 37 Sudoeste 0 933.9 -2.5 81
2017-12-10 04:00:00 9.4 15 Sudoeste 43 Sudoeste 0 935.4 -2 82
2017-12-10 03:00:00 9 12 Sudoeste 25 Sudoeste 0 935.6 -2.1 81
2017-12-10 02:00:00 9.2 10 Oeste 27 Oeste 0 936.4 -1.7 78
2017-12-10 01:00:00 9.9 14 Oeste 33 Oeste 0 937.4 -0.6 77
2017-12-10 00:00:00 9.7 10 Sudoeste 19 Sudoeste 0 937.7 -0.3 78
2017-12-09 23:00:00 10.2 9 Sudoeste 25 Sudoeste 0 938.1 0.3 78
2017-12-09 22:00:00 10.2 9 Sudoeste 25 Sudoeste 0 938 -0.1 81
2017-12-09 21:00:00 10.5 10 Sudoeste 31 Sudoeste 0 938 -0.1 79
2017-12-09 20:00:00 10.9 11 Sudoeste 24 Sudoeste 0 937.8 -0.7 79
2017-12-09 19:00:00 11.3 12 Sudoeste 22 Sudoeste 0 938.1 0.5 79
2017-12-09 18:00:00 11.6 9 Sudoeste 23 Sudoeste 0 938.1 -1.2 77
2017-12-09 17:00:00 11.8 9 Sudoeste 26 Sudoeste 0 938.5 -1.5 79
2017-12-09 16:00:00 11.2 12 Sudoeste 22 Sudoeste 0 937.6 -3.3 84
2017-12-09 15:00:00 9.8 6 Sudoeste 13 Sudoeste 0 939.3 -2.4 86
2017-12-09 14:00:00 9 7 Sudoeste 15 Sudoeste 0 940 -1.8 88
2017-12-09 13:00:00 7.9 5 Sudoeste 10 Sudoeste 0 940.9 -0.9 93
2017-12-09 12:00:00 6.7 6 Sudoeste 14 Sudoeste 0 941.7 -0.2 94
2017-12-09 11:00:00 6.4 6 Sudoeste 13 Sudoeste 0 941.8 -0.3 94
2017-12-09 10:00:00 5.9 4 Sur 8 Sur 0 941.8 -0.3 95
2017-12-09 09:00:00 5.4 3 Sudoeste 6 Nordeste 0 941.9 0 95
2017-12-09 08:00:00 5.2 3 Nordeste 8 Nordeste 0 942.1 -0.1 94
2017-12-09 07:00:00 5.4 3 Oeste 8 Sudoeste 0 942.1 -0.7 94
2017-12-09 06:00:00 5.2 3 Nordeste 6 Este 0 941.9 -1 94
2017-12-09 05:00:00 5.4 3 Nordeste 6 Nordeste 0 942.2 -0.7 93
2017-12-09 04:00:00 5.8 2 Norte 7 Sudeste 0 942.8 -0.2 93
2017-12-09 03:00:00 6.3 4 Este 11 Este 0 942.9 0 92
2017-12-09 02:00:00 6.6 0 Calma 9 Sudeste 0 942.9 0.3 93
2017-12-09 01:00:00 6.9 2 Sur 7 Nordeste 0 943 0.5 93
2017-12-09 00:00:00 7.3 3 Nordeste 10 Este 0 942.9 0.6 93
2017-12-08 23:00:00 7.9 5 Este 13 Nordeste 0 942.6 0.3 93
2017-12-08 22:00:00 8.5 6 Norte 16 Nordeste 0 942.5 0.5 93
2017-12-08 21:00:00 9 3 Norte 7 Nordeste 0 942.3 0.4 93
2017-12-08 20:00:00 9.3 0 Calma 5 Nordeste 0 942.3 0.4 92
2017-12-08 19:00:00 9.6 2 Noroeste 5 Noroeste 0 942 0.3 91
2017-12-08 18:00:00 10.3 2 Noroeste 9 Norte 0 941.9 -0.2 90
2017-12-08 17:00:00 11.3 0 Calma 4 Sur 0 941.9 -0.8 85
2017-12-08 16:00:00 11.7 0 Calma 10 Sudoeste 0 941.7 -1.6 83
2017-12-08 15:00:00 11.2 6 Sudoeste 13 Sudoeste 0 942.1 -2 84
2017-12-08 14:00:00 10.2 7 Oeste 18 Sudoeste 0 942.7 -1.7 86
2017-12-08 13:00:00 8.2 5 Oeste 14 Sudoeste 0 943.3 -0.6 91
2017-12-08 12:00:00 5.4 0 Calma 4 Nordeste 0 944.1 0.4 95
2017-12-08 11:00:00 4.1 0 Calma 6 Sur 0 944.4 0.7 95
2017-12-08 10:00:00 3 0 Calma 7 Nordeste 0 943.9 0.2 95
2017-12-08 09:00:00 2.2 0 Calma 8 Sur 0 943.7 0.1 95
2017-12-08 08:00:00 2.7 3 Sudeste 10 Oeste 0 943.7 -0.3 95
2017-12-08 07:00:00 2 4 Sur 13 Oeste 0 943.7 -0.7 95
2017-12-08 06:00:00 1.6 4 Sur 10 Sudoeste 0 943.6 -0.8 95
2017-12-08 05:00:00 0.9 2 Noroeste 4 Norte 0 944 -0.6 95
2017-12-08 04:00:00 1.1 2 Sudeste 5 Sur 0 944.4 -0.7 95
2017-12-08 03:00:00 1 2 Nordeste 4 Norte 0 944.4 -0.8 94
2017-12-08 02:00:00 1.7 0 Calma 4 Norte 0 944.6 -0.7 94
2017-12-08 01:00:00 2.1 3 Norte 5 Noroeste 0 945.1 -0.2 92
2017-12-08 00:00:00 3.6 0 Calma 4 Norte 0 945.2 0.2 92
2017-12-07 23:00:00 3.6 0 Calma 5 Norte 0.8 945.3 0.1 92
2017-12-07 22:00:00 3.6 2 Este 6 Sur 1.2 945.3 0.2 91
2017-12-07 21:00:00 3.4 0 Calma 7 Noroeste 0.6 945 0.2 90
2017-12-07 20:00:00 3.6 0 Calma 4 Noroeste 0.2 945.2 0.1 88
2017-12-07 19:00:00 3.5 0 Calma 6 Este 0.2 945.1 -0.3 85
2017-12-07 18:00:00 3.5 2 Este 13 Sudeste 0 944.8 -0.6 83
2017-12-07 17:00:00 3.4 4 Nordeste 8 Nordeste 0 945.1 -1.1 80
2017-12-07 16:00:00 3 0 Calma 10 Sudoeste 0 945.4 -1.3 82
2017-12-07 15:00:00 2.5 3 Sur 12 Sudoeste 0 945.4 -2.2 82
2017-12-07 14:00:00 1.4 4 Sur 13 Sur 0 946.2 -1.4 90
2017-12-07 13:00:00 0.1 6 Sur 12 Sur 0 946.7 -0.9 93
2017-12-07 12:00:00 -0.1 4 Sudoeste 13 Sudeste 0 947.6 0.3 95
2017-12-07 11:00:00 -0.9 6 Sur 15 Sur 0 947.6 0.4 95
2017-12-07 10:00:00 -1.2 4 Sudoeste 8 Sur 0 947.6 1 95
2017-12-07 09:00:00 -1.5 3 Sudoeste 10 Sur 0 947.3 0.4 95
2017-12-07 08:00:00 -1.5 3 Este 6 Sur 0 947.2 0.5 95
2017-12-07 07:00:00 -1.5 0 Calma 6 Sudeste 0 946.6 -0.5 95
2017-12-07 06:00:00 -1.6 2 Norte 8 Sudeste 0 946.9 -0.3 95
2017-12-07 05:00:00 -1.7 2 Este 7 Este 0 946.7 -1.1 95
2017-12-07 04:00:00 -1.7 2 Sudeste 7 Este 0 947.1 -0.8 95
2017-12-07 03:00:00 -1.8 4 Nordeste 8 Este 0 947.2 -0.8 95
2017-12-07 02:00:00 -1.9 3 Noroeste 11 Sudeste 0 947.8 -0.4 95
2017-12-07 01:00:00 -2 3 Este 9 Sudeste 0 947.9 -0.6 95
2017-12-07 00:00:00 -1.9 3 Sudeste 8 Sudeste 0 948 -0.3 95
2017-12-06 23:00:00 -2 2 Sur 7 Este 0 948.2 -0.1 95
2017-12-06 22:00:00 -2.1 0 Calma 8 Sudeste 0 948.5 0.1 95
2017-12-06 21:00:00 -1.9 2 Noroeste 7 Sudoeste 0 948.3 0.3 95
2017-12-06 20:00:00 -2 4 Sudoeste 9 Sudoeste 0 948.3 0.1 95
2017-12-06 19:00:00 -1.8 3 Sudeste 8 Sudeste 0 948.4 0.3 95
2017-12-06 18:00:00 -1.8 3 Sudeste 6 Sudeste 0 948 -0.5 95
2017-12-06 17:00:00 -1.8 3 Nordeste 6 Este 0 948.2 -0.9 95
2017-12-06 16:00:00 -2.1 3 Este 10 Este 0 948.1 -1.6 95
2017-12-06 15:00:00 -2.2 0 Calma 8 Sur 0 948.5 -1.8 95
2017-12-06 14:00:00 -2.5 3 Nordeste 8 Este 0 949.1 -1.5 95
2017-12-06 13:00:00 -2.8 2 Sur 15 Este 0 949.7 -0.7 95
2017-12-06 12:00:00 -3.5 3 Nordeste 8 Norte 0 950.3 0.2 94
2017-12-06 11:00:00 -4 2 Sur 7 Sudoeste 0 950.6 0.6 94
2017-12-06 10:00:00 -4.3 3 Norte 6 Norte 0 950.4 0.5 94
2017-12-06 09:00:00 -4.7 3 Nordeste 7 Nordeste 0 950.1 0.2 94
2017-12-06 08:00:00 -4.6 2 Noroeste 11 Este 0 950 0.1 94
2017-12-06 07:00:00 -4.7 3 Este 8 Este 0 949.9 -0.4 94
2017-12-06 06:00:00 -4.2 3 Sudeste 10 Sudeste 0 949.9 -0.2 94
2017-12-06 05:00:00 -3.8 3 Sudeste 8 Sudeste 0 949.9 -0.5 95
2017-12-06 04:00:00 -3.5 5 Este 8 Este 0 950.3 -0.2 95
2017-12-06 03:00:00 -3.2 3 Sudeste 9 Sudeste 0 950.1 -0.6 95
2017-12-06 02:00:00 -3.1 4 Sur 10 Sur 0 950.4 -0.1 95
2017-12-06 01:00:00 -3.2 3 Sur 9 Sur 0 950.5 0 95
2017-12-06 00:00:00 -3.4 3 Sur 13 Sudoeste 0 950.7 0.4 93
2017-12-05 23:00:00 -2.5 4 Sur 7 Sur 0 950.5 0.4 89
2017-12-05 22:00:00 -0.7 4 Sur 8 Sur 0 950.5 0.7 88
2017-12-05 21:00:00 0.5 5 Sur 9 Sur 0 950.3 0.4 85
2017-12-05 20:00:00 1.6 5 Sur 9 Sur 0 950.1 0.4 82
2017-12-05 19:00:00 1.2 0 Calma 3 Sur 0 949.8 0.1 76
2017-12-05 18:00:00 4.7 0 Calma 4 Nordeste 0 949.9 -0.3 63
2017-12-05 17:00:00 7.8 2 Este 7 Nordeste 0 949.7 -0.9 56
2017-12-05 16:00:00 8 3 Noroeste 13 Norte 0 949.7 -1.6 55
2017-12-05 15:00:00 7.4 4 Norte 13 Nordeste 0 950.2 -1.8 59
2017-12-05 14:00:00 6.5 5 Norte 17 Nordeste 0 950.6 -1.3 63
2017-12-05 13:00:00 5.6 9 Norte 18 Norte 0 951.3 -0.4 68
2017-12-05 12:00:00 4.6 8 Norte 16 Nordeste 0 952 0.5 73
2017-12-05 11:00:00 3.5 10 Norte 19 Noroeste 0 951.9 0.6 79
2017-12-05 10:00:00 0.8 3 Nordeste 8 Norte 0 951.7 0.6 89
2017-12-05 09:00:00 -0.1 5 Norte 10 Norte 0 951.5 0.4 92
2017-12-05 08:00:00 -1.6 3 Noroeste 7 Norte 0 951.3 0.2 91
2017-12-05 07:00:00 -2.9 3 Norte 7 Nordeste 0 951.1 -0.4 92
2017-12-05 06:00:00 -3.9 3 Norte 6 Nordeste 0 951.1 -0.4 91
2017-12-05 05:00:00 -3.3 2 Norte 10 Norte 0 951.1 -0.5 90
2017-12-05 04:00:00 -2.4 5 Norte 11 Norte 0 951.5 -0.4 90
2017-12-05 03:00:00 -2.3 8 Norte 12 Norte 0 951.5 -0.5 90
2017-12-05 02:00:00 -1.8 4 Norte 11 Norte 0 951.6 -0.2 89
2017-12-05 01:00:00 -0.8 6 Norte 11 Noroeste 0 951.9 0.3 91
2017-12-05 00:00:00 -0.5 4 Norte 7 Norte 0 952 0.5 91
2017-12-04 23:00:00 -0.1 4 Norte 8 Nordeste 0 951.8 0.6 88
2017-12-04 22:00:00 0.2 4 Norte 7 Norte 0 951.6 0.7 88
2017-12-04 21:00:00 0.4 3 Norte 6 Norte 0 951.5 0.9 86
2017-12-04 20:00:00 1.3 3 Norte 5 Nordeste 0 951.2 1 81
2017-12-04 19:00:00 3 0 Calma 14 Sudeste 0 950.9 0.9 72
2017-12-04 18:00:00 6.5 6 Sudeste 12 Sudeste 0 950.6 0.2 65
2017-12-04 17:00:00 8.1 7 Este 17 Este 0 950.2 -0.6 57
2017-12-04 16:00:00 8.4 7 Este 21 Este 0 950 -1.4 55
2017-12-04 15:00:00 8.1 7 Este 16 Este 0 950.4 -1.4 53
2017-12-04 14:00:00 7.2 5 Norte 13 Nordeste 0 950.8 -1 55
2017-12-04 13:00:00 5.9 5 Nordeste 12 Nordeste 0 951.4 0.1 60
2017-12-04 12:00:00 3.8 4 Noroeste 9 Oeste 0 951.8 1.2 67
2017-12-04 11:00:00 1.3 3 Norte 10 Norte 0 951.8 1.9 75
2017-12-04 10:00:00 -2.2 3 Norte 13 Norte 0 951.3 1.8 87
2017-12-04 09:00:00 -4 6 Norte 10 Norte 0 950.6 1.5 90
2017-12-04 08:00:00 -5.1 0 Calma 7 Nordeste 0 949.9 0.9 89
2017-12-04 07:00:00 -5.1 3 Noroeste 6 Nordeste 0 949.5 0.2 88
2017-12-04 06:00:00 -4.5 3 Norte 7 Norte 0 949.1 0.1 87
2017-12-04 05:00:00 -3.2 3 Norte 9 Noroeste 0 949 0.2 88
2017-12-04 04:00:00 -3.6 0 Calma 5 Norte 0 949.3 0.6 87
2017-12-04 03:00:00 -3.2 0 Calma 5 Noroeste 0 949 0.6 85
2017-12-04 02:00:00 -2.1 2 Noroeste 9 Sur 0 948.8 0.8 83
2017-12-04 01:00:00 -2.6 4 Noroeste 6 Noroeste 0 948.7 0.9 85
2017-12-04 00:00:00 -2.3 2 Noroeste 6 Sudeste 0 948.4 0.8 81
2017-12-03 23:00:00 -0.5 2 Nordeste 14 Noroeste 0 948 0.7 75
2017-12-03 22:00:00 0 0 Calma 4 Noroeste 0 947.8 0.7 77
2017-12-03 21:00:00 0.2 3 Oeste 7 Oeste 0 947.6 0.6 74
2017-12-03 20:00:00 2.4 2 Sudoeste 7 Sudoeste 0 947.3 0.6 65
2017-12-03 19:00:00 4 5 Sudoeste 8 Oeste 0 947.1 0.6 59
2017-12-03 18:00:00 5.1 4 Sudoeste 12 Sur 0 947 0.5 55
2017-12-03 17:00:00 7.3 7 Sur 16 Sur 0 946.7 0 48
2017-12-03 16:00:00 7.5 5 Sudeste 15 Sudeste 0 946.5 -0.3 46
2017-12-03 15:00:00 7.2 4 Este 13 Sudeste 0 946.5 -0.6 47
2017-12-03 14:00:00 6.5 4 Este 17 Sudeste 0 946.7 -0.2 50
2017-12-03 13:00:00 5.9 4 Este 15 Nordeste 0 946.8 0.3 56
2017-12-03 12:00:00 4.8 5 Norte 14 Noroeste 0 947.1 1 62
2017-12-03 11:00:00 2.6 6 Noroeste 15 Noroeste 0 946.9 1.5 74
2017-12-03 10:00:00 -1.8 0 Calma 8 Norte 0 946.5 1.6 89
2017-12-03 09:00:00 -4.1 4 Sudeste 9 Norte 0 946.1 1.5 89
2017-12-03 08:00:00 -4.9 2 Nordeste 6 Sudeste 0 945.4 1 89
2017-12-03 07:00:00 -4.4 0 Calma 5 Oeste 0 944.9 0.7 88
2017-12-03 06:00:00 -3.8 3 Sudoeste 5 Sudoeste 0 944.6 0.8 88
2017-12-03 05:00:00 -4 0 Calma 4 Este 0 944.4 0.6 87
2017-12-03 04:00:00 -3.1 0 Calma 8 Este 0 944.2 0.8 88
2017-12-03 03:00:00 -2.5 2 Oeste 5 Norte 0 943.8 0.5 85
2017-12-03 02:00:00 -1.7 2 Noroeste 15 Nordeste 0 943.8 0.8 84
2017-12-03 01:00:00 -1.4 3 Nordeste 9 Nordeste 0 943.4 0.9 85
2017-12-03 00:00:00 -1 0 Calma 12 Nordeste 0 943.3 0.9 82
2017-12-02 23:00:00 -0.1 3 Nordeste 12 Norte 0 943 1 79
2017-12-02 22:00:00 0.7 7 Noroeste 19 Noroeste 0 942.5 1.4 75
2017-12-02 21:00:00 0.9 2 Norte 20 Norte 0 942.4 1.3 74
2017-12-02 20:00:00 1.6 6 Norte 19 Norte 0 942 1.2 70
2017-12-02 19:00:00 2.6 7 Norte 19 Norte 0 941.1 0.5 63
2017-12-02 18:00:00 4.8 13 Norte 26 Norte 0 941.1 0.6 55
2017-12-02 17:00:00 7.4 14 Norte 35 Norte 0 940.8 -0.2 42
2017-12-02 16:00:00 7.8 16 Norte 40 Norte 0 940.6 -0.6 41
2017-12-02 15:00:00 8.2 22 Norte 55 Norte 0 940.5 -1.1 40
2017-12-02 14:00:00 8.1 22 Norte 42 Norte 0 941 -0.8 43
2017-12-02 13:00:00 7.3 16 Norte 35 Norte 0 941.2 -0.3 48
2017-12-02 12:00:00 6.5 14 Noroeste 28 Noroeste 0 941.6 0.6 52
2017-12-02 11:00:00 4 15 Noroeste 26 Noroeste 0 941.8 1.1 62
2017-12-02 10:00:00 1.6 14 Noroeste 26 Noroeste 0 941.5 0.8 68
2017-12-02 09:00:00 0.2 13 Noroeste 25 Noroeste 0 941 0.3 71
2017-12-02 08:00:00 0 15 Noroeste 28 Noroeste 0 940.7 -0.1 73
2017-12-02 07:00:00 -1 12 Noroeste 21 Noroeste 0 940.7 -0.1 78
2017-12-02 06:00:00 -3.4 2 Sudoeste 10 Sudoeste 0 940.7 -0.1 83
2017-12-02 05:00:00 -2.7 4 Sur 9 Sur 0 940.8 0.1 78
2017-12-02 04:00:00 -3.2 3 Sudoeste 11 Sur 0 940.8 0 78
2017-12-02 03:00:00 -1.7 5 Oeste 13 Oeste 0 940.8 0.3 70
2017-12-02 02:00:00 -1.3 2 Sudoeste 12 Oeste 0 940.7 0.2 67
2017-12-02 01:00:00 -0.4 9 Oeste 24 Noroeste 0 940.8 0.4 63
2017-12-02 00:00:00 -0.1 10 Oeste 27 Noroeste 0 940.5 0.6 61
2017-12-01 23:00:00 0.9 13 Noroeste 21 Noroeste 0 940.5 1 56
2017-12-01 22:00:00 -0.9 3 Noroeste 9 Noroeste 0 940.4 1.8 64
2017-12-01 21:00:00 -0.3 4 Sur 17 Noroeste 0 939.9 1.6 65
2017-12-01 20:00:00 1.2 11 Noroeste 26 Norte 0 939.5 2 58
2017-12-01 19:00:00 2.1 13 Norte 33 Norte 0 938.6 2 54
2017-12-01 18:00:00 3.4 17 Norte 40 Norte 0 938.3 2.3 52
2017-12-01 17:00:00 5.8 18 Norte 41 Norte 0 937.5 1.6 43
2017-12-01 16:00:00 6.8 21 Norte 45 Norte 0 936.6 1 45
2017-12-01 15:00:00 7.7 21 Norte 51 Norte 0 936 0.7 48
2017-12-01 14:00:00 8.1 21 Norte 53 Norte 0 935.9 1.3 47
2017-12-01 13:00:00 7.8 23 Norte 49 Nordeste 0 935.6 1.1 54
2017-12-01 12:00:00 8.2 21 Norte 50 Noroeste 0 935.3 0.7 59
2017-12-01 11:00:00 7.6 22 Noroeste 49 Noroeste 0 934.6 -0.2 60
2017-12-01 10:00:00 4.1 7 Oeste 19 Oeste 0 934.5 -0.7 67
2017-12-01 09:00:00 1.6 9 Sudoeste 19 Oeste 0 934.6 -1.3 73
2017-12-01 08:00:00 1.1 8 Oeste 17 Oeste 0 934.8 -1.5 74
2017-12-01 07:00:00 1.2 8 Oeste 18 Oeste 0 935.2 -1.9 73
2017-12-01 06:00:00 1.6 9 Oeste 22 Oeste 0 935.9 -1.2 72
2017-12-01 05:00:00 1.9 11 Oeste 27 Noroeste 0 936.3 -0.8 72
2017-12-01 04:00:00 1.6 12 Oeste 25 Noroeste 0 937.1 -0.5 72
2017-12-01 03:00:00 1.2 12 Noroeste 23 Noroeste 0 937.1 -0.6 72
2017-12-01 02:00:00 1.7 8 Oeste 18 Oeste 0 937.1 -0.7 70
2017-12-01 01:00:00 1.7 12 Noroeste 21 Noroeste 0 937.6 -0.2 71
2017-12-01 00:00:00 2.2 10 Noroeste 24 Noroeste 0 937.7 0.3 70
2017-11-30 23:00:00 2.5 10 Noroeste 19 Oeste 0 937.8 0.7 68
2017-11-30 22:00:00 2.1 10 Oeste 20 Noroeste 0 937.8 1 67
2017-11-30 21:00:00 2.9 10 Noroeste 19 Oeste 0 937.4 0.9 60
2017-11-30 20:00:00 3.6 9 Noroeste 18 Noroeste 0 937.1 1.3 58
2017-11-30 19:00:00 4.1 10 Noroeste 18 Noroeste 0 936.8 1.3 56
2017-11-30 18:00:00 5.6 7 Noroeste 18 Noroeste 0 936.5 1 49
2017-11-30 17:00:00 8.7 8 Noroeste 21 Noroeste 0 935.8 0 38
2017-11-30 16:00:00 8.8 10 Noroeste 26 Norte 0 935.5 -0.3 39
2017-11-30 15:00:00 9.2 8 Noroeste 27 Norte 0 935.5 -0.8 39
2017-11-30 14:00:00 8.4 10 Norte 23 Norte 0 935.8 -0.4 44
2017-11-30 13:00:00 7.1 7 Noroeste 18 Norte 0 935.8 0.1 49
2017-11-30 12:00:00 5.3 8 Noroeste 15 Noroeste 0 936.3 1.3 55
2017-11-30 11:00:00 2.7 5 Norte 14 Norte 0 936.2 2.1 68
2017-11-30 10:00:00 -1.2 2 Sudeste 15 Norte 0 935.7 2.1 83
2017-11-30 09:00:00 -2.6 7 Noroeste 14 Norte 0 935 1.7 85
2017-11-30 08:00:00 -3.1 5 Norte 13 Norte 0 934.1 1.1 85
2017-11-30 07:00:00 -3.7 2 Nordeste 10 Norte 0 933.6 0.5 86
2017-11-30 06:00:00 -3.2 4 Norte 13 Norte 0 933.3 0.7 85
2017-11-30 05:00:00 -2.9 5 Norte 10 Norte 0 933 0.7 85
2017-11-30 04:00:00 -2.5 3 Nordeste 10 Norte 0 933.1 0.6 85
2017-11-30 03:00:00 -3 4 Noroeste 7 Noroeste 0 932.6 0.5 86
2017-11-30 02:00:00 -2.7 3 Norte 8 Norte 0 932.3 0.4 86
2017-11-30 01:00:00 -1.7 4 Sudeste 15 Norte 0 932.5 1.1 82
2017-11-30 00:00:00 -0.3 7 Nordeste 16 Norte 0 932.1 1.5 78
2017-11-29 23:00:00 -1.7 6 Norte 9 Norte 0 931.9 2 84
2017-11-29 22:00:00 -0.8 3 Nordeste 17 Norte 0 931.4 2.1 80
2017-11-29 21:00:00 1.5 8 Norte 18 Norte 0 930.6 2 71
2017-11-29 20:00:00 2.3 8 Norte 17 Norte 0 929.9 1.9 67
2017-11-29 19:00:00 3.6 8 Norte 19 Norte 0 929.3 1.8 60
2017-11-29 18:00:00 4.9 9 Norte 20 Norte 0 928.6 1.2 57
2017-11-29 17:00:00 7.5 13 Nordeste 29 Norte 0 928 0.5 45
2017-11-29 16:00:00 8.9 16 Norte 33 Norte 0 927.5 -0.5 39
2017-11-29 15:00:00 9 19 Norte 34 Norte 0 927.4 -1.3 39
2017-11-29 14:00:00 9 16 Norte 32 Norte 0 927.5 -1.1 48
2017-11-29 13:00:00 7.8 12 Norte 28 Norte 0 928 -0.5 61
2017-11-29 12:00:00 5.8 11 Noroeste 26 Noroeste 0 928.7 0.4 73
2017-11-29 11:00:00 2.7 6 Noroeste 10 Noroeste 0 928.6 0.6 90
2017-11-29 10:00:00 -1.3 0 Calma 8 Sudeste 0 928.5 0.6 95
2017-11-29 09:00:00 -4 2 Nordeste 5 Este 0 928.3 0.5 94
2017-11-29 08:00:00 -4 2 Norte 5 Nordeste 0 928 0.2 94
2017-11-29 07:00:00 -4.1 0 Calma 5 Este 0 927.9 -0.3 94
2017-11-29 06:00:00 -4 0 Calma 7 Noroeste 0 927.8 -0.7 94
2017-11-29 05:00:00 -3.5 3 Nordeste 6 Noroeste 0 927.8 -1 94
2017-11-29 04:00:00 -2.9 0 Calma 5 Nordeste 0 928.2 -1.2 95
2017-11-29 03:00:00 -2.8 0 Calma 6 Nordeste 0 928.5 -1.1 95
2017-11-29 02:00:00 -2.9 2 Nordeste 5 Nordeste 0 928.8 -1.4 96
2017-11-29 01:00:00 -2.1 3 Norte 7 Noroeste 0 929.4 -0.8 96
2017-11-29 00:00:00 -1.8 4 Noroeste 6 Oeste 0 929.6 -0.9 96
2017-11-28 23:00:00 -0.8 3 Norte 7 Norte 0 930.2 -0.7 96
2017-11-28 22:00:00 -0.3 4 Norte 15 Norte 0 930.2 -0.7 96
2017-11-28 21:00:00 1.2 6 Norte 11 Norte 0 930.5 -0.5 95
2017-11-28 20:00:00 1.5 4 Nordeste 13 Nordeste 0 930.9 -0.5 95
2017-11-28 19:00:00 1.7 6 Norte 10 Norte 0 930.9 -1.1 95
2017-11-28 18:00:00 1.7 3 Este 7 Sudeste 0 931 -1.5 95
2017-11-28 17:00:00 2.1 4 Sur 9 Sur 0 931.4 -2.4 94
2017-11-28 16:00:00 1.7 4 Sudeste 18 Este 0 932 -2.9 95
2017-11-28 15:00:00 1.1 5 Sur 12 Sudeste 0 932.5 -3.5 95
2017-11-28 14:00:00 0.1 4 Sudeste 13 Sudeste 0 933.8 -2.7 95
2017-11-28 13:00:00 -1.2 3 Sudeste 9 Nordeste 0 934.9 -1.8 95
2017-11-28 12:00:00 -1.9 3 Nordeste 10 Este 0 936 -1 95
2017-11-28 11:00:00 -3 3 Este 9 Norte 0 936.5 -0.6 95
2017-11-28 10:00:00 -3.6 0 Calma 9 Nordeste 0 936.7 -0.3 95
2017-11-28 09:00:00 -3.8 4 Nordeste 10 Nordeste 0 937 -0.3 95
2017-11-28 08:00:00 -3.9 3 Norte 13 Norte 0 937.1 -0.7 95
2017-11-28 07:00:00 -3.8 3 Nordeste 8 Nordeste 0 937 -1.3 95
2017-11-28 06:00:00 -3.8 0 Calma 8 Norte 0 937.3 -1.4 95
2017-11-28 05:00:00 -3.8 3 Nordeste 8 Nordeste 0 937.8 -1.3 93
2017-11-28 04:00:00 -3.5 3 Sudoeste 9 Norte 0 938.3 -1.6 94
2017-11-28 03:00:00 -3.5 3 Nordeste 6 Nordeste 0 938.7 -1.4 94
2017-11-28 02:00:00 -2.4 0 Calma 5 Sudoeste 0 939.1 -1.3 93
2017-11-28 01:00:00 -1.4 0 Calma 5 Noroeste 0 939.9 -0.7 93
2017-11-28 00:00:00 -1.3 3 Nordeste 5 Sur 0 940.1 -0.8 91
2017-11-27 23:00:00 -0.2 2 Este 15 Este 0 940.4 -0.6 93
2017-11-27 22:00:00 -0.3 2 Nordeste 4 Nordeste 0 940.6 -0.7 90
2017-11-27 21:00:00 0.2 2 Noroeste 5 Sur 0 940.9 -0.6 88
2017-11-27 20:00:00 1.3 0 Calma 6 Norte 0 941 -0.6 84
2017-11-27 19:00:00 3.6 3 Sur 15 Sudoeste 0 941.3 -0.6 79
2017-11-27 18:00:00 4.9 6 Sudoeste 14 Sudoeste 0 941.5 -0.9 74
2017-11-27 17:00:00 7.7 8 Sudoeste 13 Sudoeste 0 941.6 -1.7 63
2017-11-27 16:00:00 8.9 3 Sur 13 Sur 0 941.9 -2.4 55
2017-11-27 15:00:00 8.4 3 Sur 12 Sudeste 0 942.4 -2.7 56
2017-11-27 14:00:00 6.9 5 Nordeste 11 Nordeste 0 943.3 -2.3 66
2017-11-27 13:00:00 6.2 3 Oeste 9 Este 0 944.3 -1.3 67
2017-11-27 12:00:00 4.3 3 Sudeste 9 Sudeste 0 945.1 -0.5 72
2017-11-27 11:00:00 1.7 4 Nordeste 11 Norte 0 945.6 0.2 80
2017-11-27 10:00:00 -0.3 5 Norte 11 Norte 0 945.6 0.5 85
2017-11-27 09:00:00 -2.6 4 Norte 8 Noroeste 0 945.6 0.4 89
2017-11-27 08:00:00 -2.8 4 Noroeste 10 Noroeste 0 945.4 -0.1 90
2017-11-27 07:00:00 -3.3 3 Noroeste 7 Noroeste 0 945.1 -0.8 91
2017-11-27 06:00:00 -2.7 3 Norte 8 Nordeste 0 945.2 -0.8 90
2017-11-27 05:00:00 -2 4 Nordeste 12 Norte 0 945.5 -0.5 89
2017-11-27 04:00:00 -1.4 5 Norte 10 Norte 0 945.9 -0.5 90
2017-11-27 03:00:00 -1.2 3 Norte 12 Norte 0 946 -0.4 89
2017-11-27 02:00:00 -0.8 5 Norte 14 Este 0 946 -0.5 89
2017-11-27 01:00:00 -0.4 5 Norte 12 Noroeste 0 946.4 -0.4 88
2017-11-27 00:00:00 -0.2 7 Norte 13 Norte 0 946.4 -0.5 90
2017-11-26 23:00:00 -0.2 5 Norte 7 Norte 0 946.5 -0.2 88
2017-11-26 22:00:00 0.7 3 Nordeste 6 Nordeste 0 946.8 0.1 85
2017-11-26 21:00:00 2.3 3 Nordeste 11 Norte 0 946.9 0.2 81
2017-11-26 20:00:00 2.8 5 Norte 9 Norte 0 946.7 0.2 79
2017-11-26 19:00:00 3.8 5 Norte 12 Este 0 946.7 0.4 77
2017-11-26 18:00:00 5.9 5 Norte 10 Nordeste 0 946.7 -0.1 71
2017-11-26 17:00:00 8.1 5 Este 14 Sur 0 946.5 -0.9 60
2017-11-26 16:00:00 8.5 6 Sudeste 18 Nordeste 0 946.3 -1.7 58
2017-11-26 15:00:00 7.9 6 Este 21 Nordeste 0 946.8 -1.9 59
2017-11-26 14:00:00 7.8 8 Este 18 Este 0 947.4 -1.4 60
2017-11-26 13:00:00 6.5 5 Norte 15 Este 0 948 -0.1 66
2017-11-26 12:00:00 5 6 Nordeste 17 Nordeste 0 948.7 1.2 73
2017-11-26 11:00:00 3.2 10 Norte 19 Norte 0 948.8 1.9 80
2017-11-26 10:00:00 1.1 7 Norte 14 Nordeste 0 948.1 1.6 88
2017-11-26 09:00:00 -1.5 3 Norte 7 Norte 0 947.5 1.5 93
2017-11-26 08:00:00 -1.6 0 Calma 8 Nordeste 0 946.9 1 92
2017-11-26 07:00:00 -1.4 3 Norte 6 Nordeste 0 946.5 0.8 92
2017-11-26 06:00:00 -0.4 3 Norte 6 Norte 0 946 0.2 90
2017-11-26 05:00:00 0.2 5 Norte 8 Norte 0 945.9 0.6 90
2017-11-26 04:00:00 0.7 4 Nordeste 9 Este 0 945.7 0.4 90
2017-11-26 03:00:00 0.6 5 Nordeste 17 Noroeste 0 945.8 0.8 89
2017-11-26 02:00:00 1.5 3 Nordeste 10 Nordeste 0 945.3 0.7 86
2017-11-26 01:00:00 2.1 4 Nordeste 12 Norte 0 945.3 1.1 86
2017-11-26 00:00:00 2.6 4 Nordeste 8 Nordeste 0 945 1.5 85
2017-11-25 23:00:00 3.5 4 Nordeste 17 Este 0 944.6 1.8 82
2017-11-25 22:00:00 4.4 8 Nordeste 26 Este 0 944.2 1.9 80
2017-11-25 21:00:00 5.6 9 Este 27 Este 0 943.5 2 77
2017-11-25 20:00:00 6.6 15 Este 36 Este 0 942.8 2.1 74
2017-11-25 19:00:00 8.1 14 Este 31 Este 0 942.3 2.2 73
2017-11-25 18:00:00 9 9 Este 22 Sudeste 0 941.5 1.4 71
2017-11-25 17:00:00 10.5 9 Este 20 Sudeste 0 940.7 0.6 68
2017-11-25 16:00:00 11.1 6 Este 18 Este 0 940.1 0 63
2017-11-25 15:00:00 11.6 6 Nordeste 26 Nordeste 0 940.1 -0.3 64
2017-11-25 14:00:00 12.2 12 Nordeste 28 Nordeste 0 940.1 0.1 54
2017-11-25 13:00:00 11.7 15 Norte 29 Nordeste 0 940.1 0.8 54
2017-11-25 12:00:00 11.2 14 Nordeste 26 Nordeste 0 940.4 1.7 58
2017-11-25 11:00:00 10.2 11 Norte 22 Norte 0 940 2.5 69
2017-11-25 10:00:00 8.4 9 Norte 20 Norte 0 939.3 2.5 78
2017-11-25 09:00:00 6.9 8 Norte 20 Norte 0 938.7 2.8 85
2017-11-25 08:00:00 8 12 Norte 26 Norte 0 937.5 1.6 84
2017-11-25 07:00:00 8.7 12 Norte 22 Norte 0 936.8 1.1 86
2017-11-25 06:00:00 9 4 Norte 12 Norte 0 935.9 0.7 87
2017-11-25 05:00:00 9.4 5 Norte 17 Norte 0 935.9 1.2 86
2017-11-25 04:00:00 10.2 11 Norte 27 Norte 0 935.7 1.3 83
2017-11-25 03:00:00 11.5 9 Noroeste 18 Noroeste 0.2 935.2 0.9 88
2017-11-25 02:00:00 11.7 3 Sudoeste 12 Sur 0 934.7 0.7 92
2017-11-25 01:00:00 12 5 Sudoeste 21 Sur 3 934.4 0.4 91
2017-11-25 00:00:00 12.2 10 Sudoeste 28 Sudoeste 4.2 934.3 0.6 90
2017-11-24 23:00:00 12.6 9 Sudoeste 23 Sudoeste 0 934 -0.1 85
2017-11-24 22:00:00 12.1 8 Sur 27 Sudoeste 0 934 0 88
2017-11-24 21:00:00 12.4 11 Sur 23 Sudoeste 0 933.7 -0.3 86
2017-11-24 20:00:00 13 9 Sur 21 Sur 0 934.1 0.2 83
2017-11-24 19:00:00 13.3 6 Sudoeste 18 Sudoeste 0 934 0.2 73
2017-11-24 18:00:00 14.1 12 Sudoeste 26 Sudoeste 0 934 -0.3 67
2017-11-24 17:00:00 14.9 10 Sudoeste 31 Sudoeste 0 933.9 -0.9 66
2017-11-24 16:00:00 14.5 15 Sudoeste 30 Sudoeste 0 933.8 -1.2 66
2017-11-24 15:00:00 14.4 14 Sudoeste 33 Sudoeste 0 934.3 -1.1 64
2017-11-24 14:00:00 13.8 15 Sudoeste 36 Sudoeste 0 934.8 -0.6 71
2017-11-24 13:00:00 13.4 15 Sudoeste 31 Sudoeste 0 935 -0.1 76
2017-11-24 12:00:00 13.1 18 Sudoeste 33 Sudoeste 0 935.4 0.9 78
2017-11-24 11:00:00 12 14 Sudoeste 33 Sudoeste 0 935.4 1.4 84
2017-11-24 10:00:00 11.4 10 Sudoeste 22 Sudoeste 0 935.1 1.2 86
2017-11-24 09:00:00 11.1 11 Sudoeste 26 Sudoeste 0 934.5 0.9 87
2017-11-24 08:00:00 11 10 Sudoeste 25 Sudoeste 0 934 0.4 88
2017-11-24 07:00:00 10.6 11 Sudoeste 25 Sudoeste 0 933.9 -0.1 91
2017-11-24 06:00:00 9.6 7 Sudoeste 15 Sur 0 933.6 -0.4 91
2017-11-24 05:00:00 9.4 2 Sur 12 Sur 0.2 933.6 -0.6 89
2017-11-24 04:00:00 9.5 8 Sur 15 Sur 1.2 934 -0.9 87
2017-11-24 03:00:00 9.8 5 Sur 14 Sur 0 934 -0.7 84
2017-11-24 02:00:00 10.4 5 Sur 22 Sur 0 934.2 0 80
2017-11-24 01:00:00 11.1 3 Sur 10 Sudeste 0 934.9 0.8 60
2017-11-24 00:00:00 11 0 Calma 11 Sur 0 934.7 0.2 64
2017-11-23 23:00:00 11.2 2 Sur 10 Sudoeste 0 934.2 -0.1 61
2017-11-23 22:00:00 12.6 6 Sudoeste 21 Sur 0 934.1 0.2 55
2017-11-23 21:00:00 13.5 6 Sudoeste 21 Sudoeste 0 934.5 0.9 55
2017-11-23 20:00:00 13.7 11 Sudoeste 22 Sudoeste 0 934.3 1.1 58
2017-11-23 19:00:00 13.6 6 Sudoeste 13 Sudoeste 0 933.9 0.9 65
2017-11-23 18:00:00 14.8 5 Sudoeste 30 Oeste 0 933.6 0.5 59
2017-11-23 17:00:00 16 21 Sudoeste 41 Sudoeste 0 933.2 -0.1 54
2017-11-23 16:00:00 15.8 14 Sudoeste 35 Oeste 0 933 -0.4 55
2017-11-23 15:00:00 15.1 14 Sudoeste 33 Sudoeste 0 933.1 -0.3 67
2017-11-23 14:00:00 14.1 14 Sudoeste 32 Sudoeste 0 933.3 0.3 74
2017-11-23 13:00:00 13.4 17 Sudoeste 33 Sudoeste 0 933.4 1 78
2017-11-23 12:00:00 13.3 13 Sudoeste 30 Sudoeste 0 933.4 1.7 77
2017-11-23 11:00:00 12.3 15 Sudoeste 35 Sur 0 933 2.1 78
2017-11-23 10:00:00 12.1 11 Sudoeste 30 Sudoeste 0 932.4 2.4 75
2017-11-23 09:00:00 11.1 7 Sudoeste 27 Sudoeste 0 931.7 2.2 74
2017-11-23 08:00:00 11.1 9 Sur 27 Sudoeste 0 930.9 1.5 70
2017-11-23 07:00:00 11 10 Sudoeste 25 Sudoeste 0 930 1 68
2017-11-23 06:00:00 10.7 9 Sur 23 Sur 0 929.5 1 65
2017-11-23 05:00:00 10.6 7 Sur 17 Sudoeste 0 929.4 0.6 60
2017-11-23 04:00:00 9.5 5 Sur 13 Sur 0 929 0.2 58
2017-11-23 03:00:00 8.4 3 Sur 11 Nordeste 0 928.5 -0.4 59
2017-11-23 02:00:00 8.5 5 Nordeste 11 Sur 0 928.8 0 59
2017-11-23 01:00:00 11.1 8 Sur 24 Sudoeste 0 928.8 0.2 49
2017-11-23 00:00:00 11.3 12 Sudoeste 25 Sudoeste 0 928.9 0.3 47
2017-11-22 23:00:00 11.9 12 Sur 29 Sudoeste 0 928.8 0.6 43
2017-11-22 22:00:00 12.6 10 Sudoeste 31 Sur 0 928.6 0.5 40
2017-11-22 21:00:00 12.9 11 Sudoeste 28 Sudoeste 0 928.6 0.2 38
2017-11-22 20:00:00 13.6 13 Sudoeste 33 Sudoeste 0 928.2 -0.4 35
2017-11-22 19:00:00 14.2 13 Sur 28 Sur 0 928.1 -0.9 34
2017-11-22 18:00:00 12.3 2 Sur 14 Sur 0 928.4 -1.3 45
2017-11-22 17:00:00 13.4 8 Sur 23 Sudoeste 0 928.6 -2.1 40
2017-11-22 16:00:00 14.3 10 Sur 18 Sur 0 929 -2.5 36
2017-11-22 15:00:00 14.5 5 Sudeste 19 Sudeste 0 929.7 -2.7 34
2017-11-22 14:00:00 12.3 6 Sur 16 Sudoeste 0 930.7 -2 39
2017-11-22 13:00:00 11 5 Sur 13 Sur 0 931.5 -1.8 43
2017-11-22 12:00:00 7.2 5 Sur 9 Sur 0 932.4 -1.2 54
2017-11-22 11:00:00 3.9 2 Este 8 Este 0 932.7 -0.6 67
2017-11-22 10:00:00 1 4 Nordeste 7 Nordeste 0 933.3 -0.3 77
2017-11-22 09:00:00 -2.5 2 Noroeste 5 Noroeste 0 933.6 0.1 87
2017-11-22 08:00:00 -2.6 3 Norte 5 Nordeste 0 933.3 -0.6 86
2017-11-22 07:00:00 -2.1 2 Norte 6 Norte 0 933.6 -0.9 86
2017-11-22 06:00:00 -2.2 4 Norte 6 Noroeste 0 933.5 -1.4 87
2017-11-22 05:00:00 -2.2 0 Calma 6 Norte 0 933.9 -1.4 86
2017-11-22 04:00:00 -1.6 2 Nordeste 6 Norte 0 934.5 -1.3 84
2017-11-22 03:00:00 -1.1 2 Norte 4 Este 0 934.9 -1.3 83
2017-11-22 02:00:00 0 2 Nordeste 7 Nordeste 0 935.3 -1.2 79
2017-11-22 01:00:00 1 4 Norte 12 Norte 0 935.8 -0.5 77
2017-11-22 00:00:00 1.1 6 Norte 12 Norte 0 936.2 -0.1 76
2017-11-21 23:00:00 2 3 Norte 7 Norte 0 936.5 -0.2 74
2017-11-21 22:00:00 3.4 3 Este 6 Sudeste 0 936.3 -0.5 68
2017-11-21 21:00:00 3.7 0 Calma 5 Sudeste 0 936.3 -0.3 67
2017-11-21 20:00:00 4.4 2 Noroeste 5 Norte 0 936.7 -0.3 63
2017-11-21 19:00:00 6.3 0 Calma 5 Norte 0 936.8 -0.6 55
2017-11-21 18:00:00 11.9 4 Sur 11 Sur 0 936.6 -1.2 38
2017-11-21 17:00:00 14.8 5 Sur 13 Sur 0 937 -1.4 31
2017-11-21 16:00:00 15.1 6 Sur 12 Sur 0 937.4 -1.8 30
2017-11-21 15:00:00 13.8 4 Sur 11 Sur 0 937.8 -2.4 32
2017-11-21 14:00:00 11.8 4 Sur 10 Sudeste 0 938.4 -2.1 38
2017-11-21 13:00:00 9.9 3 Sur 8 Este 0 939.2 -1.3 44
2017-11-21 12:00:00 7.8 0 Calma 8 Sur 0 940.2 -0.2 52
2017-11-21 11:00:00 4.2 2 Norte 7 Norte 0 940.5 0.3 64
2017-11-21 10:00:00 1.1 5 Este 12 Norte 0 940.5 0.5 75
2017-11-21 09:00:00 -2.6 2 Sudoeste 5 Norte 0 940.4 0.5 84
2017-11-21 08:00:00 -2.7 3 Norte 8 Norte 0 940.2 0.6 84
2017-11-21 07:00:00 -3 3 Nordeste 4 Norte 0 940 0 83
2017-11-21 06:00:00 -2.1 0 Calma 4 Norte 0 939.9 0 82
2017-11-21 05:00:00 -1.3 5 Norte 8 Norte 0 939.6 -0.7 82
2017-11-21 04:00:00 -1.5 2 Norte 11 Este 0 940 -0.4 82
2017-11-21 03:00:00 -0.8 3 Nordeste 10 Norte 0 939.9 -0.6 78
2017-11-21 02:00:00 0.4 5 Norte 11 Norte 0 940.3 -0.1 76
2017-11-21 01:00:00 1.1 2 Norte 8 Norte 0 940.4 0.1 72
2017-11-21 00:00:00 2 4 Norte 9 Norte 0 940.5 0.3 70
2017-11-20 23:00:00 1.1 3 Norte 5 Nordeste 0 940.4 0.5 69
2017-11-20 22:00:00 2.5 0 Calma 5 Este 0 940.3 0.9 65
2017-11-20 21:00:00 3.5 2 Noroeste 4 Noroeste 0 940.2 1 58
2017-11-20 20:00:00 5.3 0 Calma 5 Nordeste 0 939.9 0.7 51
2017-11-20 19:00:00 7.6 3 Sudoeste 5 Norte 0 939.4 0.1 46
2017-11-20 18:00:00 11.5 2 Sudoeste 10 Sudoeste 0 939.2 -0.4 33
2017-11-20 17:00:00 14.5 6 Sur 14 Sur 0 939.2 -1.2 27
2017-11-20 16:00:00 15.3 6 Sur 15 Sur 0 939.3 -2 25
2017-11-20 15:00:00 15.7 6 Sur 15 Sur 0 939.6 -2.4 26
2017-11-20 14:00:00 13.9 4 Sur 10 Sur 0 940.4 -1.8 28
2017-11-20 13:00:00 11.3 3 Este 8 Noroeste 0 941.3 -0.8 34
2017-11-20 12:00:00 9.3 3 Norte 10 Nordeste 0 942 0.2 43
2017-11-20 11:00:00 6 2 Sudoeste 8 Sudoeste 0 942.2 0.7 55
2017-11-20 10:00:00 2.9 3 Este 7 Norte 0 942.1 0.9 66
2017-11-20 09:00:00 -1.5 2 Noroeste 5 Norte 0 941.8 0.8 75
2017-11-20 08:00:00 -1.2 4 Norte 9 Norte 0 941.5 0.8 73
2017-11-20 07:00:00 -1.5 4 Norte 10 Noroeste 0 941.2 0.3 76
2017-11-20 06:00:00 -1.7 3 Norte 6 Norte 0 941 -0.2 78
2017-11-20 05:00:00 -1.1 5 Norte 6 Norte 0 940.7 -0.4 75
2017-11-20 04:00:00 -0.8 4 Norte 8 Norte 0 940.9 -0.5 74
2017-11-20 03:00:00 0.9 4 Norte 9 Norte 0 941.2 -0.2 67
2017-11-20 02:00:00 1.3 5 Norte 10 Norte 0 941.1 -0.2 63
2017-11-20 01:00:00 1.4 5 Norte 9 Noroeste 0 941.4 0.5 61
2017-11-20 00:00:00 1.7 4 Norte 8 Norte 0 941.4 0.7 58
2017-11-19 23:00:00 1.7 3 Norte 6 Norte 0 941.3 1.1 56
2017-11-19 22:00:00 2.8 2 Norte 6 Norte 0 940.9 0.9 46
2017-11-19 21:00:00 3.6 4 Norte 6 Norte 0 940.7 1.1 43
2017-11-19 20:00:00 4.9 2 Oeste 4 Oeste 0 940.2 0.9 38
2017-11-19 19:00:00 6.9 0 Calma 3 Noroeste 0 940 0.7 31
2017-11-19 18:00:00 11.3 0 Calma 6 Este 0 939.6 0.1 25
2017-11-19 17:00:00 16 3 Este 9 Este 0 939.3 -0.6 13
2017-11-19 16:00:00 16.3 4 Norte 8 Nordeste 0 939.3 -1.3 16
2017-11-19 15:00:00 15.5 4 Sudoeste 13 Nordeste 0 939.5 -1.8 18
2017-11-19 14:00:00 14.1 3 Este 10 Nordeste 0 939.9 -1.3 18
2017-11-19 13:00:00 11.7 4 Norte 10 Norte 0 940.6 -0.5 34
2017-11-19 12:00:00 9.8 2 Nordeste 8 Nordeste 0 941.3 0.9 45
2017-11-19 11:00:00 6.7 3 Nordeste 14 Norte 0 941.2 1.2 62
2017-11-19 10:00:00 3.2 6 Norte 11 Norte 0 941.1 1.4 76
2017-11-19 09:00:00 -1.5 0 Calma 5 Nordeste 0 940.4 0.9 89
2017-11-19 08:00:00 -1.7 0 Calma 8 Norte 0 940 0.5 86
2017-11-19 07:00:00 -1.6 4 Norte 8 Nordeste 0 939.7 0 87
2017-11-19 06:00:00 0.6 4 Noroeste 12 Noroeste 0 939.5 -0.1 83
2017-11-19 05:00:00 1.1 6 Noroeste 11 Noroeste 0 939.5 0 82
2017-11-19 04:00:00 1.2 4 Norte 12 Noroeste 0 939.7 0 81
2017-11-19 03:00:00 1.8 7 Noroeste 11 Noroeste 0 939.6 0 81
2017-11-19 02:00:00 2.5 0 Calma 12 Noroeste 0 939.5 -0.2 80
2017-11-19 01:00:00 4 7 Norte 12 Norte 0 939.7 0.1 82
2017-11-19 00:00:00 4.6 4 Norte 9 Este 0 939.6 0.2 78
2017-11-18 23:00:00 6.6 4 Este 13 Nordeste 0 939.7 0.8 72
2017-11-18 22:00:00 7 6 Nordeste 13 Este 0 939.6 1.2 66
2017-11-18 21:00:00 7.4 6 Nordeste 11 Este 0 939.4 1.2 64
2017-11-18 20:00:00 7 3 Nordeste 6 Nordeste 0 938.9 0.9 65
2017-11-18 19:00:00 8.8 0 Calma 3 Sur 0 938.4 0.6 59
2017-11-18 18:00:00 13.1 0 Calma 8 Nordeste 0 938.2 0.1 46
2017-11-18 17:00:00 16.8 4 Este 11 Este 0 938 -0.9 34
2017-11-18 16:00:00 16.7 5 Este 14 Este 0 937.8 -1.7 36
2017-11-18 15:00:00 16.3 6 Este 22 Nordeste 0 938.1 -2.1 38
2017-11-18 14:00:00 15 10 Nordeste 22 Este 0 938.9 -1.4 41
2017-11-18 13:00:00 13.2 7 Nordeste 19 Nordeste 0 939.5 -0.7 50
2017-11-18 12:00:00 11.2 8 Nordeste 18 Nordeste 0 940.2 0.3 53
2017-11-18 11:00:00 8.3 6 Norte 13 Norte 0 940.3 1 59
2017-11-18 10:00:00 4.5 3 Nordeste 5 Nordeste 0 940.2 1.1 74
2017-11-18 09:00:00 1 0 Calma 5 Norte 0 939.9 0.9 84
2017-11-18 08:00:00 1.2 2 Norte 12 Norte 0 939.3 0.3 82
2017-11-18 07:00:00 1.4 6 Noroeste 11 Noroeste 0 939.1 -0.2 83
2017-11-18 06:00:00 0.8 5 Norte 9 Norte 0 939 -0.3 85
2017-11-18 05:00:00 1.5 2 Nordeste 5 Norte 0 939 -0.3 84
2017-11-18 04:00:00 2.1 2 Norte 9 Nordeste 0 939.3 -0.2 79
2017-11-18 03:00:00 3.4 0 Calma 8 Norte 0 939.3 0.1 75
2017-11-18 02:00:00 3.5 2 Norte 16 Este 0 939.3 0 76
2017-11-18 01:00:00 4.6 0 Calma 8 Norte 0 939.5 0.6 71
2017-11-18 00:00:00 6.2 5 Norte 8 Norte 0 939.2 0.3 64
2017-11-17 23:00:00 6.5 4 Norte 6 Norte 0 939.3 1 61
2017-11-17 22:00:00 7.5 4 Norte 18 Este 0 938.9 0.9 59
2017-11-17 21:00:00 7.8 4 Nordeste 18 Este 0 938.9 1.2 62
2017-11-17 20:00:00 9.2 0 Calma 5 Nordeste 0 938.3 0.8 55
2017-11-17 19:00:00 10.2 0 Calma 4 Oeste 0 938 0.4 51
2017-11-17 18:00:00 13.4 0 Calma 2 Oeste 0 937.7 -0.3 43
2017-11-17 17:00:00 16.8 0 Calma 6 Norte 0 937.5 -1 33
2017-11-17 16:00:00 17.3 4 Norte 13 Nordeste 0 937.6 -1.7 30
2017-11-17 15:00:00 17.1 4 Norte 10 Norte 0 938 -2.1 30
2017-11-17 14:00:00 15.9 3 Nordeste 12 Este 0 938.5 -1.6 32
2017-11-17 13:00:00 14.9 5 Nordeste 15 Nordeste 0 939.3 -0.8 35
2017-11-17 12:00:00 12.8 7 Norte 12 Nordeste 0 940.1 0.2 46
2017-11-17 11:00:00 9.8 5 Norte 12 Norte 0 940.1 0.6 53
2017-11-17 10:00:00 6.5 7 Norte 12 Norte 0 940.1 0.9 63
2017-11-17 09:00:00 3.4 8 Norte 14 Norte 0 939.9 0.7 72
2017-11-17 08:00:00 2.7 4 Norte 10 Norte 0 939.5 0.4 74
2017-11-17 07:00:00 3.3 5 Noroeste 15 Norte 0 939.2 -0.1 72
2017-11-17 06:00:00 3.3 6 Norte 14 Noroeste 0 939.2 -0.2 73
2017-11-17 05:00:00 4 7 Norte 12 Noroeste 0 939.1 -0.3 71
2017-11-17 04:00:00 4.1 6 Norte 13 Norte 0 939.3 -0.2 71
2017-11-17 03:00:00 3.5 5 Norte 11 Norte 0 939.4 0 74
2017-11-17 02:00:00 3.3 4 Norte 9 Norte 0 939.4 0.1 74
2017-11-17 01:00:00 3.6 6 Norte 8 Norte 0 939.5 0.6 74
2017-11-17 00:00:00 5.5 4 Norte 9 Noroeste 0 939.4 0.6 66
2017-11-16 23:00:00 5.2 3 Norte 12 Norte 0 939.3 0.9 65
2017-11-16 22:00:00 4.9 3 Norte 5 Norte 0 938.9 0.8 64
2017-11-16 21:00:00 5.7 3 Nordeste 4 Norte 0 938.8 1.1 60
2017-11-16 20:00:00 7.1 0 Calma 4 Oeste 0 938.4 0.8 55
2017-11-16 19:00:00 9.3 2 Oeste 4 Sudoeste 0 938.1 0.5 48
2017-11-16 18:00:00 14.3 0 Calma 6 Sur 0 937.7 -0.1 34
2017-11-16 17:00:00 16.9 2 Este 8 Nordeste 0 937.6 -0.5 26
2017-11-16 16:00:00 17 3 Este 9 Sudeste 0 937.6 -1.3 26
2017-11-16 15:00:00 16.1 4 Este 10 Este 0 937.8 -1.6 27
2017-11-16 14:00:00 14.9 3 Sudoeste 10 Sur 0 938.1 -1.5 31
2017-11-16 13:00:00 12.5 3 Sudeste 8 Este 0 938.9 -0.3 38
2017-11-16 12:00:00 10.4 3 Nordeste 8 Este 0 939.4 0.9 48
2017-11-16 11:00:00 7.8 2 Nordeste 7 Este 0 939.6 1.5 60
2017-11-16 10:00:00 4.2 0 Calma 5 Este 0 939.2 1.4 74
2017-11-16 09:00:00 0.4 3 Nordeste 6 Norte 0 938.5 1.1 86
2017-11-16 08:00:00 -1 3 Norte 4 Norte 0 938.1 0.7 88
2017-11-16 07:00:00 -0.6 2 Este 5 Nordeste 0 937.8 0.6 86
2017-11-16 06:00:00 -0.4 2 Norte 13 Este 0 937.4 0 84
2017-11-16 05:00:00 0.1 2 Nordeste 6 Norte 0 937.4 -0.1 80
2017-11-16 04:00:00 0.6 0 Calma 5 Sudoeste 0 937.2 -0.4 78
2017-11-16 03:00:00 0.7 0 Calma 4 Oeste 0 937.4 -0.2 77
2017-11-16 02:00:00 1.3 3 Nordeste 7 Noroeste 0 937.5 0.1 75
2017-11-16 01:00:00 1.7 0 Calma 5 Noroeste 0 937.6 0.2 70
2017-11-16 00:00:00 2.1 2 Noroeste 5 Norte 0 937.6 0.4 66
2017-11-15 23:00:00 2.5 4 Norte 5 Norte 0 937.4 0.6 64
2017-11-15 22:00:00 3.3 0 Calma 4 Norte 0 937.4 0.9 60
2017-11-15 21:00:00 4.1 0 Calma 5 Sudeste 0 937.2 1 57
2017-11-15 20:00:00 5.5 3 Sur 5 Sur 0 936.8 0.6 50
2017-11-15 19:00:00 8.1 3 Sur 6 Sudoeste 0 936.5 0.3 41
2017-11-15 18:00:00 12.3 3 Sudoeste 11 Sur 0 936.2 -0.2 27
2017-11-15 17:00:00 15.5 4 Sur 12 Sur 0 936.2 -0.9 19
2017-11-15 16:00:00 15.6 4 Sur 11 Sur 0 936.2 -1.3 20
2017-11-15 15:00:00 14.5 4 Sudeste 9 Sur 0 936.4 -2 21
2017-11-15 14:00:00 13.2 3 Sur 9 Nordeste 0 937.1 -1.6 25
2017-11-15 13:00:00 11.6 4 Sudeste 9 Sur 0 937.5 -1.3 36
2017-11-15 12:00:00 9.5 3 Sur 8 Sur 0 938.4 0 48
2017-11-15 11:00:00 6.5 2 Sur 6 Oeste 0 938.7 0.8 64
2017-11-15 10:00:00 3 0 Calma 6 Sudeste 0 938.8 1 77
2017-11-15 09:00:00 0.8 3 Sudeste 13 Norte 0 938.4 0.7 82
2017-11-15 08:00:00 0.5 7 Norte 17 Norte 0 937.9 0 84
2017-11-15 07:00:00 0 6 Noroeste 14 Noroeste 0 937.8 -0.2 85
2017-11-15 06:00:00 0.3 6 Norte 14 Noroeste 0 937.7 -0.7 85
2017-11-15 05:00:00 0.6 3 Norte 8 Norte 0 937.9 -0.1 82
2017-11-15 04:00:00 0.9 3 Norte 12 Norte 0 938 -0.5 80
2017-11-15 03:00:00 0.6 6 Norte 10 Noroeste 0 938.4 -0.2 76
2017-11-15 02:00:00 2 0 Calma 15 Norte 0 938 -0.9 70
2017-11-15 01:00:00 2.9 7 Noroeste 15 Noroeste 0 938.5 -0.1 70
2017-11-15 00:00:00 3 5 Norte 8 Norte 0 938.6 0 68